createdAt,value
2023-02-13T05:58:54.351Z,68.27
2023-02-13T06:00:01.923Z,67.63
2023-02-13T06:01:02.930Z,68.07
2023-02-13T06:01:54.312Z,68.51
2023-02-13T06:03:02.927Z,68.51
2023-02-13T06:03:54.291Z,69.12
2023-02-13T06:05:02.909Z,68.71
2023-02-13T06:05:54.280Z,0
2023-02-13T06:06:54.282Z,0
2023-02-13T06:08:01.838Z,0
2023-02-13T06:08:54.242Z,0
2023-02-13T06:09:54.235Z,0
2023-02-13T06:10:54.231Z,0
2023-02-13T06:11:54.216Z,0
2023-02-13T06:12:54.214Z,0
2023-02-13T06:13:54.199Z,0
2023-02-13T06:15:01.768Z,0
2023-02-13T06:15:54.189Z,0
2023-02-13T06:17:01.732Z,0
2023-02-13T06:17:54.154Z,0
2023-02-13T06:18:54.141Z,0
2023-02-13T06:19:54.127Z,0
2023-02-13T06:21:02.707Z,75.1
2023-02-13T06:21:54.109Z,0
2023-02-13T06:22:54.123Z,0
2023-02-13T06:23:54.106Z,0
2023-02-13T06:24:54.085Z,0
2023-02-13T06:25:54.065Z,0
2023-02-13T06:26:54.062Z,0
2023-02-13T06:27:54.054Z,0
2023-02-13T06:28:54.034Z,0
2023-02-13T06:29:54.024Z,0
2023-02-13T06:30:54.015Z,0
2023-02-13T06:31:54.004Z,0
2023-02-13T06:32:54.003Z,0
2023-02-13T06:33:53.984Z,0
2023-02-13T06:34:53.976Z,0
2023-02-13T06:35:53.969Z,76.33
2023-02-13T06:36:53.951Z,76.53
2023-02-13T06:37:53.938Z,0
2023-02-13T06:38:53.946Z,76.46
2023-02-13T06:39:53.924Z,0
2023-02-13T06:40:53.920Z,0
2023-02-13T06:41:53.906Z,75.04
2023-02-13T06:42:53.888Z,75
2023-02-13T06:43:53.890Z,74.15
2023-02-13T06:44:53.864Z,0
2023-02-13T06:45:53.894Z,0
2023-02-13T06:46:53.856Z,74.69
2023-02-13T06:47:53.849Z,73.94
2023-02-13T06:48:53.832Z,73.1
2023-02-13T06:49:53.818Z,72.14
2023-02-13T06:50:53.805Z,72.14
2023-02-13T06:51:53.795Z,72.14
2023-02-13T06:52:53.794Z,71.97
2023-02-13T06:53:53.782Z,72.28
2023-02-13T06:54:53.762Z,72.41
2023-02-13T06:55:53.758Z,72.69
2023-02-13T06:56:53.746Z,72.38
2023-02-13T06:57:53.735Z,73.19
2023-02-13T06:58:53.722Z,73.03
2023-02-13T06:59:53.731Z,73.1
2023-02-13T07:00:53.707Z,72.82
2023-02-13T07:01:53.695Z,73.1
2023-02-13T07:02:53.681Z,72.55
2023-02-13T07:03:53.683Z,72.34
2023-02-13T07:04:53.670Z,72.14
2023-02-13T07:05:53.647Z,72.24
2023-02-13T07:06:53.680Z,72.28
2023-02-13T07:07:53.631Z,72.48
2023-02-13T07:08:53.621Z,72.69
2023-02-13T07:09:53.606Z,72.69
2023-02-13T07:10:53.600Z,72.48
2023-02-13T07:11:53.590Z,73.3
2023-02-13T07:12:53.580Z,72.69
2023-02-13T07:13:53.590Z,73.19
2023-02-13T07:14:53.557Z,0
2023-02-13T07:15:53.551Z,0
2023-02-13T07:16:53.551Z,0
2023-02-13T07:17:53.559Z,76.6
2023-02-13T07:18:53.518Z,75.51
2023-02-13T07:19:53.502Z,74.45
2023-02-13T07:20:53.498Z,73.94
2023-02-13T07:21:53.501Z,73.64
2023-02-13T07:22:53.476Z,73.81
2023-02-13T07:23:53.468Z,73.6
2023-02-13T07:24:53.456Z,73.71
2023-02-13T07:25:53.460Z,73.3
2023-02-13T07:26:53.434Z,74.05
2023-02-13T07:27:53.423Z,73.94
2023-02-13T07:28:53.412Z,74.01
2023-02-13T07:29:53.410Z,73.81
2023-02-13T07:30:53.393Z,73.47
2023-02-13T07:31:53.450Z,72.65
2023-02-13T07:32:53.375Z,73.47
2023-02-13T07:33:53.359Z,72.86
2023-02-13T07:34:53.353Z,72.72
2023-02-13T07:35:53.381Z,72.72
2023-02-13T07:36:53.334Z,72.01
2023-02-13T07:37:53.340Z,72.41
2023-02-13T07:38:53.318Z,72.89
2023-02-13T07:39:53.295Z,74.05
2023-02-13T07:40:53.285Z,74.25
2023-02-13T07:41:53.281Z,74.52
2023-02-13T07:42:53.280Z,74.21
2023-02-13T07:43:53.255Z,73.77
2023-02-13T07:44:53.256Z,74.08
2023-02-13T07:45:53.235Z,73.57
2023-02-13T07:46:53.224Z,73.36
2023-02-13T07:47:53.217Z,73.06
2023-02-13T07:48:53.222Z,73.57
2023-02-13T07:49:53.192Z,73.33
2023-02-13T07:50:53.179Z,73.06
2023-02-13T07:51:53.174Z,73.4
2023-02-13T07:52:53.214Z,74.55
2023-02-13T07:53:53.160Z,74.01
2023-02-13T07:54:53.152Z,0
2023-02-13T07:55:53.130Z,0
2023-02-13T07:56:53.182Z,0
2023-02-13T07:57:53.106Z,0
2023-02-13T07:58:53.097Z,0
2023-02-13T07:59:53.092Z,0
2023-02-13T08:00:53.107Z,0
2023-02-13T08:01:53.065Z,0
2023-02-13T08:02:53.054Z,0
2023-02-13T08:03:53.052Z,0
2023-02-13T08:04:53.038Z,0
2023-02-13T08:05:53.028Z,0
2023-02-13T08:06:53.016Z,0
2023-02-13T08:07:53.006Z,0
2023-02-13T08:08:52.995Z,0
2023-02-13T08:09:52.984Z,0
2023-02-13T08:10:52.976Z,0
2023-02-13T08:11:52.967Z,0
2023-02-13T08:12:52.952Z,0
2023-02-13T08:13:52.947Z,0
2023-02-13T08:14:52.977Z,0
2023-02-13T08:15:52.923Z,0
2023-02-13T08:16:52.930Z,0
2023-02-13T08:17:52.915Z,0
2023-02-13T08:18:52.895Z,0
2023-02-13T08:19:52.883Z,0
2023-02-13T08:20:52.899Z,0
2023-02-13T08:21:52.858Z,0
2023-02-13T08:22:52.856Z,0
2023-02-13T08:23:52.843Z,0
2023-02-13T08:24:52.858Z,0
2023-02-13T08:25:52.827Z,0
2023-02-13T08:26:52.814Z,0
2023-02-13T08:27:52.798Z,80.6
2023-02-13T08:28:52.794Z,0
2023-02-13T08:29:52.784Z,79.94
2023-02-13T08:30:52.770Z,78.81
2023-02-13T08:31:52.758Z,77.45
2023-02-13T08:32:52.744Z,76.39
2023-02-13T08:33:52.754Z,75.64
2023-02-13T08:34:52.775Z,0
2023-02-13T08:35:52.718Z,0
2023-02-13T08:36:52.718Z,0
2023-02-13T08:37:52.701Z,0
2023-02-13T08:38:52.687Z,0
2023-02-13T08:39:52.681Z,77.97
2023-02-13T08:40:52.678Z,0
2023-02-13T08:41:52.657Z,78.07
2023-02-13T08:42:52.649Z,77.93
2023-02-13T08:43:52.634Z,77.83
2023-02-13T08:44:52.654Z,77.18
2023-02-13T08:45:52.624Z,77.42
2023-02-13T08:46:52.611Z,77.52
2023-02-13T08:47:52.599Z,77.08
2023-02-13T08:48:52.586Z,76.97
2023-02-13T08:49:52.583Z,76.36
2023-02-13T08:50:52.569Z,76.5
2023-02-13T08:51:52.550Z,76.9
2023-02-13T08:52:52.540Z,77.08
2023-02-13T08:53:52.535Z,76.56
2023-02-13T08:54:52.518Z,76.67
2023-02-13T08:55:52.509Z,0
2023-02-13T08:56:52.498Z,76.02
2023-02-13T08:57:52.487Z,76.32
2023-02-13T08:58:52.478Z,75.78
2023-02-13T08:59:52.478Z,75.13
2023-02-13T09:00:52.488Z,74.69
2023-02-13T09:01:52.448Z,74.25
2023-02-13T09:02:52.440Z,0
2023-02-13T09:03:52.434Z,75.23
2023-02-13T09:04:52.428Z,74.38
2023-02-13T09:05:52.418Z,73.84
2023-02-13T09:06:52.412Z,73.33
2023-02-13T09:07:52.385Z,72.72
2023-02-13T09:08:52.386Z,73.06
2023-02-13T09:09:52.367Z,73.57
2023-02-13T09:10:52.358Z,73.81
2023-02-13T09:11:52.351Z,73.47
2023-02-13T09:12:52.341Z,73.36
2023-02-13T09:13:52.336Z,74.11
2023-02-13T09:14:52.326Z,73.88
2023-02-13T09:15:52.301Z,72.75
2023-02-13T09:16:52.294Z,73.36
2023-02-13T09:17:52.306Z,73.54
2023-02-13T09:18:52.283Z,73.02
2023-02-13T09:19:52.258Z,72.01
2023-02-13T09:20:52.256Z,72.86
2023-02-13T09:21:52.237Z,72.82
2023-02-13T09:22:52.228Z,72.41
2023-02-13T09:23:52.225Z,71.91
2023-02-13T09:24:52.271Z,71.67
2023-02-13T09:25:52.205Z,71.5
2023-02-13T09:26:52.192Z,72.01
2023-02-13T09:27:52.189Z,72.21
2023-02-13T09:28:52.223Z,71.91
2023-02-13T09:29:52.159Z,71.4
2023-02-13T09:30:52.155Z,70.99
2023-02-13T09:31:52.140Z,71.12
2023-02-13T09:32:52.165Z,70.79
2023-02-13T09:33:52.122Z,0
2023-02-13T09:34:52.146Z,0
2023-02-13T09:35:52.096Z,0
2023-02-13T09:36:52.102Z,0
2023-02-13T09:37:52.090Z,0
2023-02-13T09:38:52.063Z,74.45
2023-02-13T09:39:53.185Z,73.97
2023-02-13T09:40:52.047Z,0
2023-02-13T09:41:52.043Z,73.02
2023-02-13T09:42:52.032Z,72.69
2023-02-13T09:43:52.021Z,71.97
2023-02-13T09:44:52.003Z,71.87
2023-02-13T09:45:52.000Z,71.7
2023-02-13T09:46:51.981Z,72.45
2023-02-13T09:47:52.023Z,72.55
2023-02-13T09:48:51.965Z,72.28
2023-02-13T09:49:51.945Z,0
2023-02-13T09:50:51.972Z,73.26
2023-02-13T09:51:51.936Z,0
2023-02-13T09:52:51.915Z,0
2023-02-13T09:53:51.905Z,0
2023-02-13T09:54:51.889Z,74.38
2023-02-13T09:55:51.887Z,73.71
2023-02-13T09:56:51.878Z,72.99
2023-02-13T09:57:51.869Z,73.16
2023-02-13T09:58:51.853Z,72.82
2023-02-13T09:59:51.846Z,72.99
2023-02-13T10:00:51.834Z,72.75
2023-02-13T10:01:51.816Z,72.04
2023-02-13T10:02:51.819Z,71.84
2023-02-13T10:03:51.804Z,71.73
2023-02-13T10:04:51.791Z,71.3
2023-02-13T10:05:51.791Z,72.14
2023-02-13T10:06:51.774Z,72.75
2023-02-13T10:07:51.765Z,72.01
2023-02-13T10:08:51.746Z,71.19
2023-02-13T10:09:53.058Z,70.78
2023-02-13T10:10:51.725Z,0
2023-02-13T10:11:51.715Z,0
2023-02-13T10:12:51.714Z,72.08
2023-02-13T10:13:51.693Z,72.48
2023-02-13T10:14:51.693Z,0
2023-02-13T10:15:51.673Z,73.98
2023-02-13T10:16:51.672Z,74.01
2023-02-13T10:17:51.660Z,72.65
2023-02-13T10:18:51.640Z,71.94
2023-02-13T10:19:51.659Z,0
2023-02-13T10:20:51.628Z,0
2023-02-13T10:21:51.615Z,73.19
2023-02-13T10:22:51.599Z,0
2023-02-13T10:23:51.664Z,71.6
2023-02-13T10:24:51.629Z,70.92
2023-02-13T10:25:51.565Z,70.31
2023-02-13T10:26:51.562Z,69.77
2023-02-13T10:27:51.543Z,69.46
2023-02-13T10:28:51.534Z,69.09
2023-02-13T10:29:51.532Z,69.32
2023-02-13T10:30:51.558Z,70.04
2023-02-13T10:31:51.505Z,70.14
2023-02-13T10:32:51.511Z,69.84
2023-02-13T10:33:51.503Z,70.58
2023-02-13T10:34:51.499Z,70.24
2023-02-13T10:35:51.463Z,70.34
2023-02-13T10:36:51.461Z,69.7
2023-02-13T10:37:51.449Z,69.29
2023-02-13T10:38:51.451Z,68.79
2023-02-13T10:39:51.422Z,68.88
2023-02-13T10:40:51.408Z,68.85
2023-02-13T10:41:51.399Z,67.94
2023-02-13T10:42:51.390Z,68.58
2023-02-13T10:43:51.372Z,69.02
2023-02-13T10:44:51.363Z,69.15
2023-02-13T10:45:51.381Z,69.46
2023-02-13T10:46:51.368Z,69.36
2023-02-13T10:47:51.333Z,70.21
2023-02-13T10:48:51.321Z,69.8
2023-02-13T10:49:51.308Z,69.67
2023-02-13T10:50:51.414Z,68.71
2023-02-13T10:51:51.294Z,68.95
2023-02-13T10:52:51.276Z,69.06
2023-02-13T10:53:51.270Z,69.46
2023-02-13T10:54:51.258Z,69.7
2023-02-13T10:55:51.264Z,69.87
2023-02-13T10:56:51.242Z,69.83
2023-02-13T10:57:51.234Z,69.8
2023-02-13T10:58:51.231Z,69.67
2023-02-13T10:59:51.205Z,68.79
2023-02-13T11:00:51.228Z,68.27
2023-02-13T11:01:51.184Z,67.36
2023-02-13T11:02:51.206Z,67.33
2023-02-13T11:03:51.201Z,67.53
2023-02-13T11:04:51.151Z,67.1
2023-02-13T11:05:51.147Z,66.25
2023-02-13T11:06:51.134Z,65.17
2023-02-13T11:07:51.115Z,64.73
2023-02-13T11:08:51.115Z,64.23
2023-02-13T11:09:51.101Z,63.79
2023-02-13T11:10:51.088Z,63.18
2023-02-13T11:11:51.092Z,62.85
2023-02-13T11:12:51.102Z,62.14
2023-02-13T11:13:51.056Z,61.56
2023-02-13T11:14:51.040Z,0
2023-02-13T11:15:51.061Z,64.62
2023-02-13T11:16:51.025Z,64.86
2023-02-13T11:17:51.008Z,65.5
2023-02-13T11:18:50.999Z,0
2023-02-13T11:19:50.997Z,0
2023-02-13T11:20:50.990Z,0
2023-02-13T11:21:50.965Z,0
2023-02-13T11:22:50.988Z,0
2023-02-13T11:23:50.946Z,0
2023-02-13T11:24:50.945Z,0
2023-02-13T11:25:50.924Z,0
2023-02-13T11:26:50.945Z,0
2023-02-13T11:27:50.900Z,0
2023-02-13T11:28:50.889Z,0
2023-02-13T11:29:50.945Z,0
2023-02-13T11:30:51.899Z,0
2023-02-13T11:31:50.856Z,0
2023-02-13T11:32:50.851Z,68.65
2023-02-13T11:33:50.844Z,66.75
2023-02-13T11:34:50.828Z,66.04
2023-02-13T11:35:50.913Z,66
2023-02-13T11:36:50.813Z,65.26
2023-02-13T11:37:50.804Z,64.52
2023-02-13T11:38:50.785Z,63.98
2023-02-13T11:39:50.779Z,63.37
2023-02-13T11:40:50.771Z,64.01
2023-02-13T11:41:50.752Z,64.04
2023-02-13T11:42:50.783Z,64.32
2023-02-13T11:43:50.736Z,63.88
2023-02-13T11:44:50.730Z,63.37
2023-02-13T11:45:50.725Z,63.34
2023-02-13T11:46:50.698Z,64.15
2023-02-13T17:23:46.820Z,63.28
2023-02-13T17:24:46.809Z,63.48
2023-02-13T17:25:46.761Z,63.91
2023-02-13T17:26:46.701Z,63.78
2023-02-13T17:27:46.685Z,63.37
2023-02-13T17:28:46.672Z,63.07
2023-02-13T17:29:46.841Z,63.28
2023-02-13T17:30:46.691Z,63.71
2023-02-13T17:31:46.647Z,63.37
2023-02-13T17:32:46.614Z,63.48
2023-02-13T17:33:46.663Z,63.17
2023-02-13T17:34:46.655Z,0
2023-02-13T17:35:46.595Z,0
2023-02-13T17:36:46.599Z,0
2023-02-13T17:37:46.578Z,0
2023-02-13T17:38:46.581Z,0
2023-02-13T17:39:46.596Z,0
2023-02-13T17:40:46.601Z,0
2023-02-13T17:41:46.548Z,0
2023-02-13T17:42:46.519Z,75.42
2023-02-13T17:43:46.511Z,0
2023-02-13T17:44:46.495Z,0
2023-02-13T17:45:46.485Z,0
2023-02-13T17:46:46.467Z,0
2023-02-13T17:47:46.454Z,0
2023-02-13T17:48:46.450Z,0
2023-02-13T17:49:46.453Z,0
2023-02-13T17:50:46.437Z,0
2023-02-13T17:51:46.431Z,0
2023-02-13T17:52:46.411Z,0
2023-02-13T17:53:46.408Z,0
2023-02-13T17:54:46.412Z,0
2023-02-13T17:55:46.383Z,0
2023-02-13T17:56:46.365Z,0
2023-02-13T17:57:46.379Z,0
2023-02-13T17:58:46.344Z,0
2023-02-13T17:59:46.336Z,0
2023-02-13T18:00:46.358Z,0
2023-02-13T18:01:46.336Z,75.65
2023-02-13T18:02:46.325Z,0
2023-02-13T18:03:46.308Z,75.42
2023-02-13T18:04:46.277Z,0
2023-02-13T18:05:46.293Z,0
2023-02-13T18:06:46.275Z,0
2023-02-13T18:07:46.268Z,0
2023-02-13T18:08:46.236Z,0
2023-02-13T18:09:46.246Z,0
2023-02-13T18:10:46.218Z,76.4
2023-02-13T18:11:46.202Z,0
2023-02-13T18:12:46.201Z,0
2023-02-13T18:13:46.185Z,0
2023-02-13T18:14:46.174Z,0
2023-02-13T18:15:46.185Z,0
2023-02-13T18:16:46.156Z,0
2023-02-13T18:17:46.150Z,0
2023-02-13T18:18:46.146Z,0
2023-02-13T18:19:46.123Z,0
2023-02-13T18:20:46.116Z,0
2023-02-13T18:21:46.115Z,0
2023-02-13T18:22:46.091Z,0
2023-02-13T18:23:46.093Z,0
2023-02-13T18:24:46.108Z,0
2023-02-13T18:25:46.076Z,0
2023-02-13T18:26:46.055Z,0
2023-02-13T18:27:46.036Z,0
2023-02-13T18:28:46.036Z,0
2023-02-13T18:29:46.011Z,0
2023-02-13T18:30:46.011Z,0
2023-02-13T18:31:46.004Z,0
2023-02-13T18:32:45.982Z,0
2023-02-13T18:33:46.029Z,0
2023-02-13T18:34:45.959Z,0
2023-02-13T18:35:45.950Z,0
2023-02-13T18:36:45.942Z,0
2023-02-13T18:37:45.965Z,0
2023-02-13T18:38:45.945Z,0
2023-02-13T18:39:45.944Z,77.26
2023-02-13T18:40:45.910Z,0
2023-02-13T18:41:45.890Z,0
2023-02-13T18:42:45.906Z,74.93
2023-02-13T18:43:45.937Z,72.24
2023-02-13T18:44:45.861Z,69.42
2023-02-13T18:45:45.861Z,68.13
2023-02-13T18:46:45.841Z,66.04
2023-02-13T18:47:45.824Z,65.7
2023-02-13T18:48:45.834Z,0
2023-02-13T18:49:45.813Z,63.94
2023-02-13T18:50:45.801Z,63.87
2023-02-13T18:51:45.784Z,64.07
2023-02-13T18:52:45.773Z,64.38
2023-02-13T18:53:45.761Z,64.51
2023-02-13T18:54:45.755Z,64.2
2023-02-13T18:55:45.741Z,64.31
2023-02-13T18:56:45.730Z,65.16
2023-02-13T18:57:45.728Z,0
2023-02-13T18:58:45.706Z,0
2023-02-13T18:59:45.707Z,0
2023-02-13T19:00:45.693Z,0
2023-02-13T19:01:45.694Z,0
2023-02-13T19:02:45.663Z,0
2023-02-13T19:03:45.671Z,74.76
